createdAt,value
2019-02-22T00:02:56.570Z,83.99
2019-02-22T00:07:58.776Z,83.86
2019-02-22T00:13:00.785Z,83.96
2019-02-22T00:18:02.942Z,84.10
2019-02-22T00:23:07.953Z,83.86
2019-02-22T00:28:10.331Z,83.44
2019-02-22T00:33:12.367Z,83.63
2019-02-22T00:38:15.291Z,83.86
2019-02-22T00:43:18.534Z,83.53
2019-02-22T00:48:23.487Z,84.36
2019-02-22T00:53:25.832Z,84.32
2019-02-22T00:58:29.816Z,83.79
2019-02-22T01:03:33.804Z,83.84
2019-02-22T01:08:38.100Z,83.95
2019-02-22T01:13:42.094Z,84.07
2019-02-22T01:18:44.549Z,84.00
2019-02-22T01:23:46.892Z,84.04
2019-02-22T01:28:48.885Z,84.28
2019-02-22T01:33:50.936Z,83.89
2019-02-22T01:38:55.696Z,83.35
2019-02-22T01:44:00.809Z,83.60
2019-02-22T01:49:02.882Z,82.36
2019-02-22T01:54:04.925Z,83.08
2019-02-22T01:59:07.287Z,83.31
2019-02-22T02:04:09.568Z,82.60
2019-02-22T02:09:11.624Z,82.76
2019-02-22T02:14:13.835Z,83.50
2019-02-22T02:19:16.200Z,83.52
2019-02-22T02:24:19.542Z,83.80
2019-02-22T02:29:21.657Z,84.13
2019-02-22T02:34:23.769Z,83.30
2019-02-22T02:39:25.819Z,83.19
2019-02-22T02:44:27.906Z,83.88
2019-02-22T02:49:29.923Z,84.06
2019-02-22T02:54:31.948Z,83.43
2019-02-22T02:59:34.010Z,83.67
2019-02-22T03:04:36.027Z,83.08
2019-02-22T03:09:38.075Z,82.83
2019-02-22T03:14:40.135Z,83.20
2019-02-22T03:19:42.231Z,83.52
2019-02-22T03:24:44.263Z,82.85
2019-02-22T03:29:46.350Z,83.08
2019-02-22T03:34:49.525Z,83.05
2019-02-22T03:39:51.865Z,83.34
2019-02-22T03:44:53.876Z,83.15
2019-02-22T03:49:57.303Z,82.76
2019-02-22T03:55:00.439Z,83.03
2019-02-22T04:00:07.215Z,82.29
2019-02-22T04:05:10.452Z,82.35
2019-02-22T04:10:13.162Z,83.03
2019-02-22T04:15:17.143Z,83.30
2019-02-22T04:20:19.233Z,82.63
2019-02-22T04:25:21.260Z,82.26
2019-02-22T04:30:23.501Z,82.19
2019-02-22T04:35:27.778Z,82.53
2019-02-22T04:40:29.929Z,82.45
2019-02-22T04:45:31.998Z,82.47
2019-02-22T04:50:34.018Z,83.13
2019-02-22T04:55:36.028Z,82.65
2019-02-22T05:00:39.704Z,82.43
2019-02-22T05:05:42.940Z,82.00
2019-02-22T05:10:44.997Z,82.54
2019-02-22T05:15:47.023Z,83.29
2019-02-22T05:20:49.274Z,82.14
2019-02-22T05:25:51.330Z,83.17
2019-02-22T05:30:53.697Z,83.45
2019-02-22T05:35:56.078Z,83.38
2019-02-22T05:40:58.359Z,83.09
2019-02-22T05:46:00.403Z,83.09
2019-02-22T05:51:04.881Z,82.98
2019-02-22T05:56:07.064Z,83.42
2019-02-22T06:01:09.128Z,83.02
2019-02-22T06:06:15.840Z,83.18
2019-02-22T06:11:18.188Z,83.38
2019-02-22T06:16:20.225Z,83.26
2019-02-22T06:21:22.857Z,82.88
2019-02-22T06:26:25.342Z,82.74
2019-02-22T06:31:27.459Z,83.13
2019-02-22T06:36:32.102Z,83.23
2019-02-22T06:41:36.022Z,83.14
2019-02-22T06:46:39.260Z,82.92
2019-02-22T06:51:41.515Z,82.74
2019-02-22T06:56:43.573Z,83.26
2019-02-22T07:01:49.890Z,82.22
2019-02-22T07:06:52.759Z,83.22
2019-02-22T07:12:08.028Z,83.08
2019-02-22T07:17:10.038Z,82.51
2019-02-22T07:22:12.621Z,82.53
2019-02-22T07:27:14.746Z,81.92
2019-02-22T07:32:18.040Z,82.10
2019-02-22T07:37:20.069Z,82.26
2019-02-22T07:42:22.189Z,82.14
2019-02-22T07:47:24.207Z,81.68
2019-02-22T07:52:26.774Z,81.33
2019-02-22T07:57:30.686Z,81.26
2019-02-22T08:02:33.578Z,80.66
2019-02-22T08:07:35.775Z,80.36
2019-02-22T08:12:37.868Z,80.10
2019-02-22T08:17:40.798Z,79.03
2019-02-22T08:22:42.990Z,79.55
2019-02-22T08:27:53.923Z,79.10
2019-02-22T08:32:54.397Z,78.76
2019-02-22T08:37:56.475Z,78.87
2019-02-22T08:42:58.594Z,79.08
2019-02-22T08:48:00.641Z,78.70
2019-02-22T08:53:03.063Z,79.04
2019-02-22T08:58:07.447Z,78.89
2019-02-22T09:03:10.839Z,78.13
2019-02-22T09:08:12.908Z,77.77
2019-02-22T09:13:14.918Z,79.03
2019-02-22T09:18:16.965Z,77.86
2019-02-22T09:23:19.021Z,77.58
2019-02-22T09:28:21.050Z,76.74
2019-02-22T09:33:25.127Z,76.37
2019-02-22T09:38:29.005Z,77.58
2019-02-22T09:43:31.301Z,77.40
2019-02-22T09:48:34.902Z,76.70
2019-02-22T09:53:37.169Z,75.43
2019-02-22T09:58:39.184Z,75.02
2019-02-22T10:03:41.341Z,76.05
2019-02-22T10:08:43.429Z,76.80
2019-02-22T10:13:45.585Z,73.14
2019-02-22T10:18:49.755Z,72.83
2019-02-22T10:23:51.778Z,74.40
2019-02-22T10:28:54.273Z,74.40
2019-02-22T10:33:56.842Z,75.49
2019-02-22T10:38:59.162Z,74.47
2019-02-22T10:44:01.462Z,74.75
2019-02-22T10:49:03.795Z,73.02
2019-02-22T10:54:09.492Z,73.56
2019-02-22T10:59:11.528Z,73.16
2019-02-22T11:04:13.552Z,72.92
2019-02-22T11:09:16.340Z,73.64
2019-02-22T11:14:28.455Z,74.16
2019-02-22T11:19:22.614Z,71.92
2019-02-22T11:24:26.912Z,71.92
2019-02-22T11:29:28.988Z,71.96
2019-02-22T11:34:31.114Z,72.57
2019-02-22T11:39:33.131Z,74.73
2019-02-22T11:44:43.030Z,73.53
2019-02-22T11:49:48.039Z,72.09
2019-02-22T11:54:53.541Z,71.41
2019-02-22T11:59:55.833Z,71.70
2019-02-22T12:05:06.871Z,72.68
2019-02-22T12:10:08.953Z,73.48
2019-02-22T12:15:18.764Z,71.69
2019-02-22T12:20:20.935Z,71.11
2019-02-22T12:25:22.971Z,73.22
2019-02-22T12:30:28.057Z,72.76
2019-02-22T12:35:32.412Z,73.95
2019-02-22T12:40:34.418Z,74.92
2019-02-22T12:45:36.433Z,72.68
2019-02-22T12:50:40.330Z,73.79
2019-02-22T12:55:42.411Z,72.98
2019-02-22T13:00:46.296Z,72.98
2019-02-22T13:05:48.318Z,73.83
2019-02-22T13:10:50.511Z,73.60
2019-02-22T13:15:54.947Z,72.84
2019-02-22T13:20:58.270Z,73.43
2019-02-22T13:26:00.271Z,71.28
2019-02-22T13:31:02.508Z,72.62
2019-02-22T13:36:06.533Z,72.39
2019-02-22T13:41:08.668Z,72.12
2019-02-22T13:46:10.743Z,72.12
2019-02-22T13:51:12.835Z,72.07
2019-02-22T13:56:15.140Z,72.50
2019-02-22T14:01:20.150Z,72.38
2019-02-22T14:06:22.158Z,73.40
2019-02-22T14:11:24.431Z,72.47
2019-02-22T14:16:26.487Z,71.96
2019-02-22T14:21:28.882Z,72.96
2019-02-22T14:26:33.640Z,72.77
2019-02-22T14:31:37.312Z,72.96
2019-02-22T14:36:39.492Z,72.94
2019-02-22T14:41:41.516Z,73.21
2019-02-22T14:46:48.064Z,72.96
2019-02-22T14:51:51.974Z,72.61
2019-02-22T14:56:54.002Z,74.39
2019-02-22T15:02:00.801Z,75.56
2019-02-22T15:07:04.942Z,75.26
2019-02-22T15:12:08.934Z,75.00
2019-02-22T15:17:29.186Z,74.67
2019-02-22T15:22:31.298Z,74.96
2019-02-22T15:27:33.306Z,74.84
2019-02-22T15:32:41.206Z,75.93
2019-02-22T15:37:43.625Z,75.76
2019-02-22T15:42:48.461Z,75.68
2019-02-22T15:47:52.047Z,74.64
2019-02-22T15:52:56.465Z,73.91
2019-02-22T15:57:58.613Z,74.04
2019-02-22T16:03:01.800Z,73.80
2019-02-22T16:08:04.035Z,73.87
2019-02-22T16:13:06.361Z,73.75
2019-02-22T16:18:10.662Z,73.09
2019-02-22T16:23:14.070Z,73.51
2019-02-22T16:28:16.261Z,73.45
2019-02-22T16:33:23.821Z,73.97
2019-02-22T16:38:25.867Z,73.52
2019-02-22T16:43:28.890Z,73.53
2019-02-22T16:48:34.918Z,73.74
2019-02-22T16:53:37.244Z,74.57
2019-02-22T16:58:40.759Z,73.92
2019-02-22T17:03:48.071Z,72.94
2019-02-22T17:08:50.059Z,73.84
2019-02-22T17:13:53.526Z,72.18
2019-02-22T17:18:56.894Z,72.18
2019-02-22T17:23:59.294Z,72.98
2019-02-22T17:29:05.389Z,72.98
2019-02-22T17:34:08.860Z,73.94
2019-02-22T17:39:13.533Z,73.92
2019-02-22T17:44:15.810Z,73.70
2019-02-22T17:49:36.857Z,73.52
2019-02-22T17:54:42.189Z,72.93
2019-02-22T17:59:44.250Z,72.82
2019-02-22T18:04:46.922Z,73.36
2019-02-22T18:09:49.006Z,72.66
2019-02-22T18:14:51.696Z,73.61
2019-02-22T18:19:56.823Z,73.73
2019-02-22T18:24:58.844Z,73.38
2019-02-22T18:30:01.013Z,73.60
2019-02-22T18:35:06.645Z,73.16
2019-02-22T18:40:12.830Z,74.71
2019-02-22T18:45:19.504Z,75.60
2019-02-22T18:50:25.190Z,75.60
2019-02-22T18:55:27.267Z,76.23
2019-02-22T19:00:29.538Z,76.74
2019-02-22T19:05:37.638Z,77.14
2019-02-22T19:10:39.679Z,78.08
2019-02-22T19:15:42.350Z,77.65
2019-02-22T19:20:44.375Z,78.12
2019-02-22T19:25:46.467Z,79.10
2019-02-22T19:30:48.719Z,79.62
2019-02-22T19:35:50.996Z,79.99
2019-02-22T19:40:53.018Z,80.17
2019-02-22T19:46:01.163Z,80.31
2019-02-22T19:51:05.193Z,80.61
2019-02-22T19:56:09.144Z,81.21
2019-02-22T20:01:11.743Z,81.57
2019-02-22T20:06:14.028Z,81.39
2019-02-22T20:11:16.100Z,81.82
2019-02-22T20:16:20.917Z,82.20
2019-02-22T20:21:23.244Z,82.91
2019-02-22T20:26:25.275Z,83.07
2019-02-22T20:31:29.959Z,83.31
2019-02-22T20:36:32.022Z,83.34
2019-02-22T20:41:34.062Z,83.28
2019-02-22T20:46:36.548Z,83.52
2019-02-22T20:51:38.633Z,83.51
2019-02-22T20:56:43.134Z,82.49
2019-02-22T21:01:47.101Z,82.16
2019-02-22T21:06:51.769Z,81.93
2019-02-22T21:11:58.440Z,82.77
2019-02-22T21:17:02.572Z,82.35
2019-02-22T21:22:09.966Z,82.36
2019-02-22T21:27:12.158Z,82.57
2019-02-22T21:32:14.330Z,82.79
2019-02-22T21:37:16.986Z,82.50
2019-02-22T21:42:20.356Z,82.66
2019-02-22T21:47:22.617Z,83.11
2019-02-22T21:52:25.380Z,82.97
2019-02-22T21:57:28.095Z,83.34
2019-02-22T22:02:32.511Z,83.27
2019-02-22T22:07:37.272Z,83.59
2019-02-22T22:12:43.326Z,83.93
2019-02-22T22:17:46.429Z,84.16
2019-02-22T22:22:48.663Z,84.02
2019-02-22T22:27:50.746Z,84.35
2019-02-22T22:32:52.896Z,84.73
2019-02-22T22:37:55.041Z,84.79
2019-02-22T22:42:57.116Z,84.95
2019-02-22T22:47:59.113Z,84.94
2019-02-22T22:53:01.415Z,84.91
2019-02-22T22:58:05.889Z,85.14
2019-02-22T23:03:08.161Z,85.17
2019-02-22T23:08:11.516Z,85.18
2019-02-22T23:13:23.644Z,84.88
2019-02-22T23:18:27.560Z,85.15
2019-02-22T23:23:30.516Z,85.18
2019-02-22T23:28:32.568Z,85.13
2019-02-22T23:33:39.920Z,85.11
2019-02-22T23:38:43.840Z,84.97
2019-02-22T23:43:46.140Z,85.00
2019-02-22T23:48:50.811Z,85.29
2019-02-22T23:53:56.573Z,85.13
2019-02-22T23:59:00.158Z,85.08
